Lagunitas, California
Current Conditions -  °F | °C
As of 12:55 AM on Wednesday 26 Nov 2014 (Local Time) from KDVO Reporting Station
Clear Clear  
Wind Chill: 48°   Ceiling: Unl
Heat Index: 48°   Visibility: 10mi
Dew Point: 46°   Wind: 3mph
Humidity: 93%   Direction: 150°SSE
Pressure: 30.33"   Gusts: NA
Location:  38.01°N, 122.7°W
Report Text: KDVO 260855Z AUTO 15003KT 10SM CLR 09/08 A3033 RMK AO2
Loading
Personal Weather Stations






























Interactive Weather Map New forecast layout! Learn more

10-Day Weather Forecast

Advertisements
Track Severe Weather on mobile